createdAt,value
2018-07-14T00:01:01.972Z,74.48
2018-07-14T00:03:31.136Z,74.56
2018-07-14T00:06:00.012Z,75.20
2018-07-14T00:08:28.828Z,75.17
2018-07-14T00:10:58.105Z,75.02
2018-07-14T00:13:27.217Z,75.10
2018-07-14T00:15:56.348Z,75.11
2018-07-14T00:18:25.435Z,75.06
2018-07-14T00:20:54.332Z,75.43
2018-07-14T00:23:23.418Z,75.12
2018-07-14T00:25:57.366Z,75.19
2018-07-14T00:28:26.116Z,75.39
2018-07-14T00:30:54.865Z,75.65
2018-07-14T00:33:24.372Z,75.31
2018-07-14T00:35:53.207Z,75.74
2018-07-14T00:38:22.433Z,76.20
2018-07-14T00:40:51.459Z,76.03
2018-07-14T00:43:20.617Z,76.14
2018-07-14T00:45:49.984Z,75.60
2018-07-14T00:48:18.977Z,75.53
2018-07-14T00:50:47.798Z,75.42
2018-07-14T00:53:16.608Z,77.76
2018-07-14T00:55:45.713Z,77.62
2018-07-14T00:58:14.818Z,76.73
2018-07-14T01:00:44.260Z,76.37
2018-07-14T01:03:13.319Z,76.96
2018-07-14T01:05:42.481Z,76.71
2018-07-14T01:08:11.215Z,76.83
2018-07-14T01:10:40.198Z,76.58
2018-07-14T01:13:09.025Z,76.58
2018-07-14T01:15:38.099Z,76.39
2018-07-14T01:18:07.696Z,76.84
2018-07-14T01:20:36.447Z,76.99
2018-07-14T01:23:05.595Z,77.37
2018-07-14T01:25:34.692Z,77.91
2018-07-14T01:28:03.827Z,78.34
2018-07-14T01:30:32.697Z,78.68
2018-07-14T01:33:01.766Z,78.42
2018-07-14T01:35:30.498Z,78.47
2018-07-14T01:37:59.611Z,78.43
2018-07-14T01:40:28.684Z,78.18
2018-07-14T01:42:57.767Z,78.11
2018-07-14T01:45:27.365Z,77.89
2018-07-14T01:47:56.461Z,78.08
2018-07-14T01:50:25.203Z,78.72
2018-07-14T01:52:54.642Z,78.61
2018-07-14T01:55:23.825Z,78.67
2018-07-14T02:00:20.292Z,78.66
2018-07-14T02:02:49.111Z,78.32
2018-07-14T02:05:18.407Z,78.77
2018-07-14T02:07:47.171Z,78.46
2018-07-14T02:10:16.660Z,78.94
2018-07-14T02:12:45.508Z,78.57
2018-07-14T02:15:14.393Z,79.01
2018-07-14T02:17:43.305Z,78.70
2018-07-14T02:20:12.216Z,78.43
2018-07-14T02:22:40.987Z,79.37
2018-07-14T02:25:09.799Z,79.26
2018-07-14T02:27:39.426Z,79.51
2018-07-14T02:30:08.347Z,79.54
2018-07-14T02:32:37.854Z,79.38
2018-07-14T02:35:06.947Z,80.11
2018-07-14T02:37:36.324Z,79.54
2018-07-14T02:40:05.334Z,79.96
2018-07-14T02:42:34.474Z,79.82
2018-07-14T02:45:03.461Z,80.00
2018-07-14T02:47:32.324Z,80.96
2018-07-14T02:50:01.124Z,81.36
2018-07-14T02:52:29.903Z,81.37
2018-07-14T02:54:59.095Z,80.85
2018-07-14T02:57:28.321Z,80.68
2018-07-14T02:59:57.386Z,80.86
2018-07-14T03:02:26.767Z,80.72
2018-07-14T03:04:55.607Z,80.47
2018-07-14T03:07:24.797Z,80.38
2018-07-14T03:09:53.860Z,80.04
2018-07-14T03:12:22.995Z,80.97
2018-07-14T03:14:51.727Z,81.04
2018-07-14T03:17:20.619Z,80.62
2018-07-14T03:19:50.217Z,80.55
2018-07-14T03:22:19.490Z,80.25
2018-07-14T03:24:48.355Z,80.44
2018-07-14T03:27:17.224Z,80.36
2018-07-14T03:29:46.102Z,80.41
2018-07-14T03:32:15.666Z,80.55
2018-07-14T03:34:45.221Z,80.67
2018-07-14T03:37:14.314Z,80.50
2018-07-14T03:39:43.435Z,81.17
2018-07-14T03:42:12.897Z,81.58
2018-07-14T03:44:41.631Z,82.56
2018-07-14T03:47:10.410Z,82.58
2018-07-14T03:49:39.437Z,81.93
2018-07-14T03:52:08.169Z,82.55
2018-07-14T03:54:37.785Z,82.75
2018-07-14T03:57:06.751Z,83.38
2018-07-14T03:59:35.992Z,83.88
2018-07-14T04:02:05.125Z,83.78
2018-07-14T04:04:34.169Z,84.27
2018-07-14T04:07:03.503Z,84.39
2018-07-14T04:09:32.277Z,84.16
2018-07-14T04:12:01.596Z,83.82
2018-07-14T04:14:30.419Z,84.31
2018-07-14T04:16:59.443Z,84.06
2018-07-14T04:19:28.206Z,84.91
2018-07-14T04:21:57.259Z,85.36
2018-07-14T04:24:26.036Z,85.99
2018-07-14T04:26:55.162Z,86.03
2018-07-14T04:29:24.221Z,85.46
2018-07-14T04:31:53.640Z,85.96
2018-07-14T04:34:22.754Z,85.92
2018-07-14T04:36:51.503Z,85.81
2018-07-14T04:39:21.219Z,85.40
2018-07-14T04:41:50.027Z,85.99
2018-07-14T04:44:19.130Z,86.91
2018-07-14T04:46:48.253Z,86.83
2018-07-14T04:49:17.692Z,86.49
2018-07-14T04:51:46.596Z,86.27
2018-07-14T04:54:15.733Z,86.28
2018-07-14T04:56:44.785Z,86.73
2018-07-14T04:59:13.614Z,86.15
2018-07-14T05:01:42.920Z,86.59
2018-07-14T05:04:12.068Z,87.58
2018-07-14T05:06:41.200Z,87.58
2018-07-14T05:09:10.272Z,87.23
2018-07-14T05:11:39.438Z,87.77
2018-07-14T05:14:08.251Z,88.08
2018-07-14T05:16:37.090Z,89.46
2018-07-14T05:19:06.422Z,89.41
2018-07-14T05:21:35.196Z,89.63
2018-07-14T05:24:04.051Z,89.77
2018-07-14T05:26:33.343Z,89.65
2018-07-14T05:29:02.161Z,89.80
2018-07-14T05:31:31.440Z,89.00
2018-07-14T05:34:00.869Z,89.50
2018-07-14T05:36:29.953Z,89.28
2018-07-14T05:38:59.134Z,89.61
2018-07-14T05:41:27.918Z,89.63
2018-07-14T05:43:56.805Z,89.89
2018-07-14T05:46:25.582Z,89.99
2018-07-14T05:48:54.675Z,89.81
2018-07-14T05:51:23.534Z,90.19
2018-07-14T05:53:52.348Z,89.74
2018-07-14T05:56:22.070Z,89.85
2018-07-14T05:58:51.220Z,89.44
2018-07-14T06:01:19.990Z,89.35
2018-07-14T06:03:48.775Z,88.93
2018-07-14T06:06:17.586Z,88.23
2018-07-14T06:08:46.637Z,87.78
2018-07-14T06:11:15.477Z,86.81
2018-07-14T06:13:44.623Z,87.04
2018-07-14T06:16:13.355Z,86.15
2018-07-14T06:18:42.224Z,85.81
2018-07-14T06:21:12.011Z,85.22
2018-07-14T06:23:41.442Z,84.53
2018-07-14T06:26:10.365Z,84.60
2018-07-14T06:28:39.518Z,83.84
2018-07-14T06:31:08.609Z,83.59
2018-07-14T06:33:37.747Z,83.75
2018-07-14T06:36:06.808Z,83.49
2018-07-14T06:38:35.659Z,82.42
2018-07-14T06:41:05.061Z,82.26
2018-07-14T06:43:34.156Z,81.10
2018-07-14T06:46:03.178Z,81.07
2018-07-14T06:48:32.001Z,80.85
2018-07-14T06:51:01.242Z,80.84
2018-07-14T06:53:30.688Z,80.83
2018-07-14T06:56:00.014Z,79.57
2018-07-14T06:58:28.789Z,79.93
2018-07-14T07:00:58.222Z,79.43
2018-07-14T07:03:27.085Z,79.02
2018-07-14T07:05:56.167Z,78.67
2018-07-14T07:08:25.047Z,78.19
2018-07-14T07:10:54.484Z,75.57
2018-07-14T07:13:23.538Z,75.76
2018-07-14T07:15:52.618Z,75.39
2018-07-14T07:18:21.396Z,75.01
2018-07-14T07:20:50.461Z,75.03
2018-07-14T07:23:19.560Z,74.23
2018-07-14T07:25:48.703Z,72.79
2018-07-14T07:28:18.118Z,72.01
2018-07-14T07:30:47.512Z,72.24
2018-07-14T07:33:17.045Z,70.93
2018-07-14T07:35:46.113Z,70.89
2018-07-14T07:38:14.914Z,71.26
2018-07-14T07:40:44.026Z,70.58
2018-07-14T07:43:13.466Z,70.14
2018-07-14T07:45:42.245Z,70.01
2018-07-14T07:48:11.140Z,69.74
2018-07-14T07:50:40.211Z,69.32
2018-07-14T07:53:09.026Z,67.98
2018-07-14T07:55:38.045Z,67.16
2018-07-14T07:58:07.106Z,67.17
2018-07-14T08:00:35.909Z,66.89
2018-07-14T08:03:04.929Z,66.43
2018-07-14T08:05:34.973Z,66.32
2018-07-14T08:08:03.788Z,66.56
2018-07-14T08:10:32.807Z,65.68
2018-07-14T08:13:01.825Z,65.03
2018-07-14T08:15:30.546Z,63.85
2018-07-14T08:17:59.558Z,64.23
2018-07-14T08:20:28.605Z,64.52
2018-07-14T08:22:57.805Z,65.77
2018-07-14T08:25:26.902Z,65.35
2018-07-14T08:27:56.306Z,64.34
2018-07-14T08:30:25.487Z,65.10
2018-07-14T08:32:54.247Z,63.81
2018-07-14T08:35:23.039Z,64.25
2018-07-14T08:37:52.121Z,64.55
2018-07-14T08:40:20.891Z,64.16
2018-07-14T08:42:49.652Z,63.98
2018-07-14T08:45:18.447Z,63.80
2018-07-14T08:47:47.347Z,63.46
2018-07-14T08:50:16.424Z,63.04
2018-07-14T08:52:45.142Z,63.15
2018-07-14T08:55:13.904Z,63.33
2018-07-14T08:57:43.278Z,63.08
2018-07-14T09:00:13.228Z,63.01
2018-07-14T09:02:42.284Z,62.20
2018-07-14T09:05:11.000Z,61.23
2018-07-14T09:07:39.845Z,62.31
2018-07-14T09:10:09.110Z,61.28
2018-07-14T09:12:38.546Z,61.05
2018-07-14T09:15:07.997Z,60.80
2018-07-14T09:17:37.037Z,60.48
2018-07-14T09:20:06.249Z,59.66
2018-07-14T09:22:35.643Z,58.95
2018-07-14T09:25:04.522Z,58.52
2018-07-14T09:27:33.630Z,58.13
2018-07-14T09:30:02.524Z,57.20
2018-07-14T09:32:31.718Z,56.06
2018-07-14T09:35:00.830Z,56.68
2018-07-14T09:37:30.249Z,55.80
2018-07-14T09:39:59.282Z,55.90
2018-07-14T09:42:28.058Z,55.49
2018-07-14T09:44:57.134Z,55.99
2018-07-14T09:47:25.915Z,55.21
2018-07-14T09:49:55.137Z,54.87
2018-07-14T09:52:24.265Z,54.45
2018-07-14T09:54:53.099Z,54.20
2018-07-14T09:57:22.115Z,53.64
2018-07-14T09:59:50.874Z,52.45
2018-07-14T10:02:19.659Z,53.17
2018-07-14T10:04:49.338Z,53.01
2018-07-14T10:07:18.660Z,53.00
2018-07-14T10:09:47.938Z,53.38
2018-07-14T10:12:16.987Z,53.84
2018-07-14T10:14:46.079Z,52.87
2018-07-14T10:17:15.218Z,53.41
2018-07-14T10:19:44.206Z,53.10
2018-07-14T10:22:13.455Z,52.71
2018-07-14T10:24:42.203Z,51.66
2018-07-14T10:27:11.613Z,51.13
2018-07-14T10:29:40.398Z,49.01
2018-07-14T10:32:09.759Z,46.09
2018-07-14T10:34:38.789Z,47.17
2018-07-14T10:37:07.928Z,47.58
2018-07-14T10:39:37.258Z,46.51
2018-07-14T10:42:06.405Z,47.89
2018-07-14T10:44:35.924Z,46.84
2018-07-14T10:47:05.279Z,47.16
2018-07-14T10:49:34.692Z,47.85
2018-07-14T10:52:03.588Z,47.87
2018-07-14T10:54:33.032Z,46.89
2018-07-14T10:57:02.127Z,45.40
2018-07-14T10:59:31.199Z,44.41
2018-07-14T11:02:00.329Z,43.16
2018-07-14T11:04:29.524Z,43.99
2018-07-14T11:06:58.372Z,41.10
2018-07-14T11:09:27.390Z,40.81
2018-07-14T11:11:56.405Z,42.15
2018-07-14T11:14:28.604Z,44.43
2018-07-14T11:16:58.060Z,44.56
2018-07-14T11:19:28.024Z,44.74
2018-07-14T11:21:57.796Z,43.98
2018-07-14T11:24:27.351Z,42.52
2018-07-14T11:26:56.196Z,42.45
2018-07-14T11:29:25.641Z,42.39
2018-07-14T11:31:54.458Z,40.70
2018-07-14T11:34:23.467Z,39.60
2018-07-14T11:36:52.663Z,40.36
2018-07-14T11:39:21.894Z,39.50
2018-07-14T11:41:51.284Z,40.40
2018-07-14T11:44:20.336Z,40.45
2018-07-14T11:46:49.372Z,40.03
2018-07-14T11:49:18.215Z,39.11
2018-07-14T11:51:47.528Z,39.94
2018-07-14T11:54:16.317Z,39.98
2018-07-14T11:56:45.446Z,39.46
2018-07-14T11:59:14.236Z,39.71
2018-07-14T12:01:43.290Z,40.51
2018-07-14T12:04:12.315Z,38.37
2018-07-14T12:06:41.965Z,37.51
2018-07-14T12:09:10.780Z,36.37
2018-07-14T12:11:39.911Z,37.33
2018-07-14T12:14:08.734Z,37.19
2018-07-14T12:16:37.913Z,37.07
2018-07-14T12:19:07.062Z,36.05
2018-07-14T12:21:35.897Z,36.18
2018-07-14T12:26:46.497Z,36.93
2018-07-14T12:29:15.908Z,37.04
2018-07-14T12:31:44.703Z,38.69
2018-07-14T12:34:14.033Z,38.29
2018-07-14T12:36:42.810Z,37.98
2018-07-14T12:39:11.579Z,36.60
2018-07-14T12:41:40.435Z,35.55
2018-07-14T12:44:09.354Z,34.88
2018-07-14T12:46:38.526Z,35.23
2018-07-14T12:49:07.374Z,34.31
2018-07-14T12:51:36.263Z,34.29
2018-07-14T12:54:05.334Z,34.96
2018-07-14T12:56:34.245Z,34.43
2018-07-14T12:59:03.421Z,33.98
2018-07-14T13:01:33.261Z,33.00
2018-07-14T13:04:02.131Z,32.81
2018-07-14T13:06:31.113Z,33.08
2018-07-14T13:09:00.177Z,32.90
2018-07-14T13:11:29.307Z,33.13
2018-07-14T13:13:58.245Z,33.23
2018-07-14T13:16:27.667Z,34.16
2018-07-14T13:18:56.516Z,33.62
2018-07-14T13:21:25.580Z,33.59
2018-07-14T13:23:54.690Z,32.47
2018-07-14T13:26:23.469Z,33.63
2018-07-14T13:28:53.040Z,33.69
2018-07-14T13:31:22.288Z,34.16
2018-07-14T13:33:51.821Z,33.53
2018-07-14T13:36:21.144Z,33.25
2018-07-14T13:38:51.736Z,32.44
2018-07-14T13:41:19.515Z,32.04
2018-07-14T13:43:48.725Z,31.82
2018-07-14T13:46:18.245Z,31.81
2018-07-14T13:48:47.601Z,30.44
2018-07-14T13:51:16.999Z,31.39
2018-07-14T13:53:46.244Z,31.40
2018-07-14T13:56:15.382Z,30.92
2018-07-14T13:58:44.250Z,31.18
2018-07-14T14:01:14.093Z,32.47
2018-07-14T14:03:43.034Z,30.32
2018-07-14T14:06:11.898Z,29.19
2018-07-14T14:08:41.491Z,30.09
2018-07-14T14:11:10.443Z,29.63
2018-07-14T14:13:39.627Z,30.24
2018-07-14T14:16:08.668Z,29.94
2018-07-14T14:18:37.688Z,30.47
2018-07-14T14:21:06.895Z,29.91
2018-07-14T14:23:35.787Z,30.87
2018-07-14T14:26:04.956Z,31.23
2018-07-14T14:28:33.757Z,31.21
2018-07-14T14:31:02.653Z,30.74
2018-07-14T14:33:32.231Z,31.46
2018-07-14T14:36:01.105Z,31.57
2018-07-14T14:38:30.315Z,32.38
2018-07-14T14:41:02.889Z,32.82
2018-07-14T14:43:32.105Z,31.57
2018-07-14T14:46:02.556Z,31.60
2018-07-14T14:48:31.901Z,31.88
2018-07-14T14:51:00.960Z,32.30
2018-07-14T14:53:30.368Z,32.36
2018-07-14T14:56:00.340Z,32.14
2018-07-14T14:58:29.158Z,31.52
2018-07-14T15:00:59.337Z,31.75
2018-07-14T15:03:29.514Z,32.29
2018-07-14T15:05:59.172Z,32.25
2018-07-14T15:08:28.057Z,32.04
2018-07-14T15:10:57.728Z,31.99
2018-07-14T15:13:53.313Z,32.46
2018-07-14T15:16:22.189Z,31.71
2018-07-14T15:18:51.446Z,32.64
2018-07-14T15:21:20.646Z,32.22
2018-07-14T15:23:50.147Z,32.71
2018-07-14T15:26:19.130Z,33.30
2018-07-14T15:28:48.246Z,32.69
2018-07-14T15:31:17.066Z,32.62
2018-07-14T15:33:46.469Z,33.01
2018-07-14T15:36:16.940Z,32.73
2018-07-14T15:38:45.771Z,32.50
2018-07-14T15:41:14.538Z,32.25
2018-07-14T15:43:44.076Z,33.17
2018-07-14T15:46:13.147Z,32.78
2018-07-14T15:48:41.994Z,33.38
2018-07-14T15:51:10.853Z,33.22
2018-07-14T15:53:40.047Z,33.82
2018-07-14T15:56:09.138Z,33.41
2018-07-14T15:58:38.027Z,33.54
2018-07-14T16:01:07.159Z,34.17
2018-07-14T16:03:36.307Z,34.36
2018-07-14T16:06:05.528Z,32.99
2018-07-14T16:08:34.673Z,34.15
2018-07-14T16:11:03.478Z,34.53
2018-07-14T16:13:32.412Z,34.88
2018-07-14T16:16:01.255Z,33.95
2018-07-14T16:18:30.492Z,34.27
2018-07-14T16:20:59.621Z,34.37
2018-07-14T16:23:28.791Z,34.55
2018-07-14T16:25:58.068Z,34.62
2018-07-14T16:28:26.970Z,35.73
2018-07-14T16:30:55.850Z,34.75
2018-07-14T16:33:24.855Z,35.75
2018-07-14T16:35:53.891Z,36.89
2018-07-14T16:38:22.984Z,36.73
2018-07-14T16:40:51.889Z,37.83
2018-07-14T16:43:21.821Z,38.08
2018-07-14T16:45:50.722Z,38.49
2018-07-14T16:48:19.589Z,38.07
2018-07-14T16:50:48.506Z,38.32
2018-07-14T16:53:17.504Z,38.45
2018-07-14T16:55:46.586Z,38.68
2018-07-14T16:58:15.834Z,38.54
2018-07-14T17:00:44.676Z,38.08
2018-07-14T17:03:14.228Z,38.73
2018-07-14T17:05:43.279Z,39.18
2018-07-14T17:08:12.191Z,39.01
2018-07-14T17:10:41.971Z,39.46
2018-07-14T17:13:11.061Z,39.98
2018-07-14T17:15:40.291Z,40.48
2018-07-14T17:18:10.217Z,40.19
2018-07-14T17:20:39.388Z,40.07
2018-07-14T17:23:08.484Z,40.53
2018-07-14T17:25:37.592Z,41.54
2018-07-14T17:28:07.171Z,41.76
2018-07-14T17:30:36.347Z,42.41
2018-07-14T17:33:06.414Z,42.55
2018-07-14T17:35:35.535Z,43.25
2018-07-14T17:38:04.702Z,43.33
2018-07-14T17:40:33.535Z,43.87
2018-07-14T17:43:02.722Z,44.23
2018-07-14T17:45:31.604Z,44.09
2018-07-14T17:48:00.809Z,45.40
2018-07-14T17:50:29.706Z,45.13
2018-07-14T17:53:00.095Z,45.61
2018-07-14T17:55:29.220Z,45.83
2018-07-14T17:57:58.334Z,45.73
2018-07-14T18:00:28.506Z,46.14
2018-07-14T18:02:57.670Z,46.44
2018-07-14T18:05:26.612Z,47.08
2018-07-14T18:07:57.346Z,47.63
2018-07-14T18:10:26.534Z,48.12
2018-07-14T18:12:55.517Z,47.69
2018-07-14T18:15:24.347Z,48.16
2018-07-14T18:17:53.689Z,49.36
2018-07-14T18:20:22.831Z,49.30
2018-07-14T18:22:57.662Z,50.28
2018-07-14T18:25:26.891Z,50.37
2018-07-14T18:27:56.301Z,50.79
2018-07-14T18:30:25.495Z,50.25
2018-07-14T18:32:54.749Z,50.96
2018-07-14T18:35:24.219Z,52.04
2018-07-14T18:37:54.027Z,51.84
2018-07-14T18:40:23.497Z,51.69
2018-07-14T18:42:52.336Z,52.27
2018-07-14T18:45:21.564Z,52.63
2018-07-14T18:47:50.685Z,53.21
2018-07-14T18:50:19.794Z,53.17
2018-07-14T18:52:49.252Z,54.18
2018-07-14T18:55:18.446Z,53.81
2018-07-14T18:57:47.240Z,54.54
2018-07-14T19:00:16.347Z,54.65
2018-07-14T19:02:45.775Z,55.01
2018-07-14T19:05:23.702Z,54.66
2018-07-14T19:07:53.151Z,55.19
2018-07-14T19:10:22.783Z,54.49
2018-07-14T19:12:51.970Z,55.51
2018-07-14T19:15:25.983Z,55.04
2018-07-14T19:17:55.169Z,55.14
2018-07-14T19:20:24.943Z,55.35
2018-07-14T19:22:54.124Z,55.76
2018-07-14T19:25:23.038Z,55.92
2018-07-14T19:27:52.093Z,56.44
2018-07-14T19:30:21.387Z,56.77
2018-07-14T19:32:50.527Z,56.89
2018-07-14T19:35:19.350Z,57.92
2018-07-14T19:37:48.308Z,57.93
2018-07-14T19:40:17.616Z,58.17
2018-07-14T19:42:46.484Z,58.53
2018-07-14T19:45:15.415Z,59.23
2018-07-14T19:47:44.624Z,58.94
2018-07-14T19:50:14.065Z,59.37
2018-07-14T19:52:42.879Z,59.41
2018-07-14T19:55:12.603Z,59.93
2018-07-14T19:57:42.034Z,59.80
2018-07-14T20:00:11.126Z,59.83
2018-07-14T20:02:39.861Z,60.06
2018-07-14T20:05:08.918Z,60.89
2018-07-14T20:07:37.789Z,60.98
2018-07-14T20:10:06.862Z,61.29
2018-07-14T20:12:36.001Z,61.20
2018-07-14T20:15:04.814Z,61.63
2018-07-14T20:17:33.654Z,61.38
2018-07-14T20:20:02.796Z,61.46
2018-07-14T20:22:31.786Z,61.89
2018-07-14T20:25:00.589Z,62.05
2018-07-14T20:27:29.387Z,62.63
2018-07-14T20:29:59.144Z,62.34
2018-07-14T20:32:28.126Z,63.18
2018-07-14T20:34:57.295Z,63.82
2018-07-14T20:37:26.056Z,63.69
2018-07-14T20:39:54.851Z,64.41
2018-07-14T20:42:23.982Z,64.45
2018-07-14T20:44:52.747Z,64.58
2018-07-14T20:47:21.554Z,64.80
2018-07-14T20:49:50.314Z,65.18
2018-07-14T20:52:19.807Z,64.91
2018-07-14T20:54:48.883Z,65.44
2018-07-14T20:57:18.036Z,65.50
2018-07-14T20:59:47.238Z,65.38
2018-07-14T21:02:16.303Z,65.63
2018-07-14T21:04:45.719Z,65.68
2018-07-14T21:07:15.044Z,66.17
2018-07-14T21:09:44.207Z,66.23
2018-07-14T21:12:13.603Z,66.10
2018-07-14T21:14:43.324Z,66.31
2018-07-14T21:17:12.407Z,66.76
2018-07-14T21:19:41.745Z,66.79
2018-07-14T21:22:10.587Z,67.52
2018-07-14T21:24:40.660Z,67.44
2018-07-14T21:27:09.502Z,68.10
2018-07-14T21:29:39.042Z,69.01
2018-07-14T21:32:09.142Z,69.44
2018-07-14T21:34:38.359Z,69.03
2018-07-14T21:37:07.141Z,70.09
2018-07-14T21:39:35.975Z,69.61
2018-07-14T21:42:05.129Z,69.88
2018-07-14T21:44:33.983Z,70.19
2018-07-14T21:47:03.185Z,70.82
2018-07-14T21:49:32.703Z,71.46
2018-07-14T21:52:01.528Z,71.94
2018-07-14T21:54:30.776Z,71.48
2018-07-14T21:56:59.566Z,71.91
2018-07-14T21:59:28.561Z,71.97
2018-07-14T22:01:58.161Z,72.48
2018-07-14T22:04:27.241Z,72.71
2018-07-14T22:06:56.064Z,73.04
2018-07-14T22:09:26.533Z,73.45
2018-07-14T22:11:56.551Z,73.45
2018-07-14T22:14:26.467Z,73.44
2018-07-14T22:16:56.532Z,73.06
2018-07-14T22:19:26.357Z,73.14
2018-07-14T22:21:56.631Z,72.89
2018-07-14T22:24:26.003Z,73.61
2018-07-14T22:26:55.143Z,73.36
2018-07-14T22:29:24.601Z,73.43
2018-07-14T22:31:53.601Z,72.84
2018-07-14T22:34:23.512Z,73.38
2018-07-14T22:36:53.082Z,73.76
2018-07-14T22:39:22.181Z,73.84
2018-07-14T22:41:51.059Z,74.35
2018-07-14T22:44:20.781Z,74.07
2018-07-14T22:46:49.676Z,74.55
2018-07-14T22:49:18.865Z,74.78
2018-07-14T22:51:48.054Z,74.54
2018-07-14T22:54:17.265Z,74.08
2018-07-14T22:56:46.085Z,73.93
2018-07-14T22:59:15.854Z,73.91
2018-07-14T23:01:44.658Z,74.41
2018-07-14T23:04:13.560Z,74.46
2018-07-14T23:06:42.887Z,74.82
2018-07-14T23:09:12.059Z,74.94
2018-07-14T23:11:41.158Z,74.91
2018-07-14T23:14:10.226Z,74.55
2018-07-14T23:16:40.020Z,74.98
2018-07-14T23:19:08.931Z,74.67
2018-07-14T23:21:38.489Z,74.97
2018-07-14T23:24:08.347Z,74.47
2018-07-14T23:26:37.479Z,74.71
2018-07-14T23:29:06.372Z,74.38
2018-07-14T23:31:35.403Z,75.02
2018-07-14T23:34:04.209Z,75.03
2018-07-14T23:36:33.665Z,75.04
2018-07-14T23:39:02.863Z,74.80
2018-07-14T23:41:32.265Z,75.48
2018-07-14T23:44:01.032Z,75.56
2018-07-14T23:46:29.969Z,75.63
2018-07-14T23:48:59.581Z,76.07
2018-07-14T23:51:28.576Z,76.19
2018-07-14T23:53:57.889Z,75.93
2018-07-14T23:56:26.807Z,76.59
2018-07-14T23:58:55.988Z,76.10
